createdAt,value
2017-07-31T00:01:54.350Z,87.99
2017-07-31T00:21:54.810Z,86.95
2017-07-31T00:41:55.272Z,88.17
2017-07-31T01:01:55.665Z,90.21
2017-07-31T01:21:56.194Z,79.19
2017-07-31T01:41:56.580Z,84.49
2017-07-31T02:01:57.062Z,85.60
2017-07-31T02:21:57.527Z,45.69
2017-07-31T02:41:57.928Z,17.04
2017-07-31T03:01:58.529Z,90.33
2017-07-31T03:21:15.588Z,62.96
2017-07-31T03:41:14.950Z,38.60
2017-07-31T04:01:15.501Z,42.87
2017-07-31T04:21:15.886Z,0.04
2017-07-31T04:41:16.379Z,0.00
2017-07-31T05:01:16.801Z,0.39
2017-07-31T05:21:17.380Z,3.76
2017-07-31T05:41:17.806Z,3.13
2017-07-31T06:01:18.343Z,16.55
2017-07-31T06:21:18.908Z,1.85
2017-07-31T06:46:19.587Z,0.71
2017-07-31T07:06:20.124Z,0.01
2017-07-31T07:26:20.614Z,0.46
2017-07-31T07:46:21.116Z,42.07
2017-07-31T08:06:21.689Z,38.97
2017-07-31T08:26:21.992Z,79.42
2017-07-31T08:56:22.665Z,80.93
2017-07-31T09:16:23.208Z,7.04
2017-07-31T09:36:23.720Z,24.62
2017-07-31T09:56:24.316Z,16.41
2017-07-31T10:16:24.740Z,65.89
2017-07-31T10:36:25.152Z,41.33
2017-07-31T10:56:25.758Z,82.01
2017-07-31T11:16:26.309Z,99.30
2017-07-31T11:36:26.825Z,99.98
2017-07-31T11:56:27.368Z,100.00
2017-07-31T12:16:27.855Z,100.00
2017-07-31T12:36:28.420Z,99.79
2017-07-31T12:56:28.992Z,97.57
2017-07-31T13:16:29.417Z,50.20
2017-07-31T13:36:29.922Z,88.62
2017-07-31T13:56:30.294Z,53.15
2017-07-31T14:16:30.862Z,57.23
2017-07-31T14:36:31.345Z,26.10
2017-07-31T14:56:31.923Z,84.27
2017-07-31T15:16:32.406Z,56.42
2017-07-31T15:46:33.216Z,9.55
2017-07-31T16:06:33.631Z,95.68
2017-07-31T16:26:34.185Z,61.87
2017-07-31T16:46:34.763Z,100.00
2017-07-31T17:06:35.241Z,94.89
2017-07-31T17:26:35.786Z,90.99
2017-07-31T17:46:36.251Z,33.02
2017-07-31T18:06:36.822Z,0.00
2017-07-31T18:26:37.361Z,0.94
2017-07-31T18:46:37.908Z,1.99
2017-07-31T19:06:38.461Z,8.19
2017-07-31T19:26:39.085Z,46.33
2017-07-31T19:46:40.519Z,85.56
2017-07-31T20:07:24.336Z,64.30
2017-07-31T20:27:24.794Z,76.28
2017-07-31T20:47:25.330Z,28.65
2017-07-31T21:07:25.778Z,56.85
2017-07-31T21:27:26.235Z,74.25
2017-07-31T22:22:27.562Z,71.33
2017-07-31T22:42:28.096Z,69.44
2017-07-31T23:02:28.591Z,64.69
2017-07-31T23:22:29.125Z,59.70
2017-07-31T23:42:29.570Z,73.88
